Time;durP1;ratioP1;P1;durP2;ratioP2;P2;SDS_P1;SDS_P2;PMS_P1;PMS_P2;Temp;Humidity;BMP_temperature;BMP_pressure;BME280_temperature;BME280_humidity;BME280_pressure;Samples;Min_cycle;Max_cycle;Signal;HPM_P1;HPM_P2
2022/02/28 00:12:37;;;;;;;26.35;16.65;;;;;;;0.28;70.91;102749.84;5044906;28;19927;-22
2022/02/28 00:18:24;;;;;;;32.00;18.73;;;;;;;0.22;70.96;102759.78;5046606;28;20373;-23
2022/02/28 00:20:50;;;;;;;35.83;19.15;;;;;;;0.21;70.86;102758.00;5047624;28;20021;-25
2022/02/28 00:23:15;;;;;;;33.13;20.20;;;;;;;0.19;71.01;102757.00;5049998;28;20033;-25
2022/02/28 00:25:41;;;;;;;36.30;20.60;;;;;;;0.18;71.03;102756.13;5050143;28;20036;-24
2022/02/28 00:28:06;;;;;;;41.65;22.42;;;;;;;0.15;71.65;102758.50;5049820;28;20029;-25
2022/02/28 00:30:33;;;;;;;41.97;20.63;;;;;;;0.16;71.42;102757.69;5051745;28;20035;-25
2022/02/28 00:32:59;;;;;;;33.03;21.23;;;;;;;0.16;71.45;102756.81;5048947;28;20124;-22
2022/02/28 00:35:24;;;;;;;37.08;20.20;;;;;;;0.14;71.63;102761.91;5049388;28;20127;-25
2022/02/28 00:37:50;;;;;;;33.58;20.35;;;;;;;0.15;71.92;102765.38;5047505;28;21563;-24
2022/02/28 00:40:15;;;;;;;38.85;20.80;;;;;;;0.13;72.04;102760.06;5023580;28;20398;-25
2022/02/28 00:42:40;;;;;;;39.50;20.88;;;;;;;0.12;71.93;102761.78;5048533;28;20083;-25
2022/02/28 00:45:06;;;;;;;35.22;21.20;;;;;;;0.10;71.53;102750.38;5048540;28;20524;-24
2022/02/28 00:47:32;;;;;;;37.20;20.85;;;;;;;0.12;71.89;102758.28;5045047;28;20025;-24
2022/02/28 00:49:57;;;;;;;38.13;20.27;;;;;;;0.11;71.79;102762.56;5055245;28;20032;-24
2022/02/28 00:52:22;;;;;;;36.22;21.27;;;;;;;0.11;71.85;102764.28;5046783;28;20037;-25
2022/02/28 00:54:48;;;;;;;36.47;21.00;;;;;;;0.11;72.08;102761.69;5047133;28;20509;-25
2022/02/28 00:57:13;;;;;;;39.38;21.50;;;;;;;0.12;72.09;102760.88;5047823;28;20398;-25
2022/02/28 00:59:39;;;;;;;39.22;21.70;;;;;;;0.11;71.56;102762.56;5033851;28;20025;-24
2022/02/28 01:02:04;;;;;;;39.22;21.02;;;;;;;0.12;71.80;102766.97;5036803;28;20096;-25
2022/02/28 01:04:29;;;;;;;39.08;21.35;;;;;;;0.12;72.30;102754.00;5034339;28;20025;-24
2022/02/28 01:06:55;;;;;;;36.33;20.67;;;;;;;0.10;71.70;102734.81;5057486;28;20028;-23
2022/02/28 01:09:20;;;;;;;35.20;19.98;;;;;;;0.13;71.76;102749.69;5054145;28;20029;-23
2022/02/28 01:11:46;;;;;;;37.35;20.98;;;;;;;0.14;71.79;102746.31;5038733;28;20060;-25
2022/02/28 01:14:11;;;;;;;37.08;21.17;;;;;;;0.14;71.85;102756.69;5051706;28;20134;-25
2022/02/28 01:16:37;;;;;;;38.83;21.38;;;;;;;0.16;71.88;102751.63;5051037;28;20096;-24
2022/02/28 01:19:03;;;;;;;38.83;22.40;;;;;;;0.15;72.16;102744.59;5051546;28;20029;-25
2022/02/28 01:21:28;;;;;;;40.85;23.05;;;;;;;0.15;72.54;102742.00;5050064;28;20025;-24
2022/02/28 01:23:54;;;;;;;40.80;21.92;;;;;;;0.17;72.15;102748.22;5045966;28;20028;-23
2022/02/28 01:26:19;;;;;;;40.15;21.27;;;;;;;0.17;72.19;102748.22;5034493;28;20511;-25
2022/02/28 01:28:44;;;;;;;39.65;21.58;;;;;;;0.17;71.92;102750.81;5034626;28;20028;-24
2022/02/28 01:31:10;;;;;;;36.88;21.45;;;;;;;0.18;72.42;102747.41;5051891;28;20036;-24
2022/02/28 01:33:35;;;;;;;41.13;22.27;;;;;;;0.18;72.13;102748.31;5053478;28;20067;-25
2022/02/28 01:36:01;;;;;;;40.28;23.02;;;;;;;0.20;72.40;102743.25;5052154;28;20032;-25
2022/02/28 01:38:27;;;;;;;39.40;20.58;;;;;;;0.19;72.44;102733.63;5055935;28;20063;-24
2022/02/28 01:40:52;;;;;;;39.33;20.75;;;;;;;0.19;72.56;102738.81;5051567;28;20061;-25
2022/02/28 01:43:18;;;;;;;38.72;21.30;;;;;;;0.20;72.08;102736.34;5037770;28;20036;-24
2022/02/28 01:45:43;;;;;;;36.78;20.95;;;;;;;0.22;72.16;102744.22;5026065;28;20025;-25
2022/02/28 01:48:08;;;;;;;36.65;21.10;;;;;;;0.22;72.42;102739.03;5038184;28;20021;-24
2022/02/28 01:50:34;;;;;;;39.65;22.15;;;;;;;0.22;71.88;102739.03;5054746;28;20025;-25
2022/02/28 01:52:59;;;;;;;39.13;21.50;;;;;;;0.23;72.46;102746.00;5056655;28;20041;-25
2022/02/28 01:55:25;;;;;;;41.55;21.83;;;;;;;0.24;72.46;102737.44;5060903;28;20019;-25
2022/02/28 01:57:51;;;;;;;39.72;20.85;;;;;;;0.25;71.89;102741.84;5057049;28;20039;-25
2022/02/28 02:00:20;;;;;;;39.08;20.63;;;;;;;0.25;72.63;102750.53;5059320;28;20060;-24
2022/02/28 02:02:46;;;;;;;34.58;19.35;;;;;;;0.26;72.26;102733.25;5035042;28;20024;-25
2022/02/28 02:05:11;;;;;;;35.25;20.33;;;;;;;0.25;71.76;102731.47;5056290;28;20067;-25
2022/02/28 02:07:36;;;;;;;33.00;19.33;;;;;;;0.27;72.29;102729.88;5057941;28;20486;-24
2022/02/28 02:10:04;;;;;;;38.65;21.35;;;;;;;0.27;72.04;102728.97;5037528;28;20025;-25
2022/02/28 02:12:30;;;;;;;37.17;19.70;;;;;;;0.27;72.05;102724.69;5050186;28;20427;-25
2022/02/28 02:14:56;;;;;;;34.67;19.63;;;;;;;0.29;72.23;102725.66;5056530;28;20029;-25
2022/02/28 02:17:21;;;;;;;37.40;20.23;;;;;;;0.30;71.70;102722.28;5037798;28;20021;-25
2022/02/28 02:19:47;;;;;;;38.80;20.55;;;;;;;0.32;72.13;102718.09;5051316;28;20028;-23
2022/02/28 02:22:15;;;;;;;41.25;21.83;;;;;;;0.33;71.68;102725.06;5050771;28;20055;-25
2022/02/28 02:24:41;;;;;;;38.22;20.13;;;;;;;0.35;72.09;102725.19;5037168;28;20407;-25
2022/02/28 02:27:06;;;;;;;37.75;20.65;;;;;;;0.35;71.86;102715.69;5053439;28;20028;-25
2022/02/28 02:29:36;;;;;;;39.35;20.02;;;;;;;0.34;71.62;102713.88;5054491;28;20489;-25
2022/02/28 02:32:09;;;;;;;37.22;18.83;;;;;;;0.36;71.56;102714.91;5049975;28;20033;-24
2022/02/28 02:34:34;;;;;;;38.75;20.85;;;;;;;0.36;71.57;102714.91;5031886;28;20410;-25
2022/02/28 02:36:59;;;;;;;36.25;20.50;;;;;;;0.37;71.66;102724.47;5050234;28;20025;-23
2022/02/28 02:39:25;;;;;;;32.78;20.42;;;;;;;0.38;72.02;102720.19;5048741;28;20036;-26
2022/02/28 02:41:50;;;;;;;35.80;19.27;;;;;;;0.38;71.94;102730.59;5054910;28;20039;-25
2022/02/28 02:44:15;;;;;;;39.40;19.75;;;;;;;0.37;71.50;102729.66;5057554;28;20119;-25
2022/02/28 02:46:48;;;;;;;36.00;18.52;;;;;;;0.37;71.87;102724.47;5052468;28;20021;-24
2022/02/28 02:49:14;;;;;;;34.65;20.52;;;;;;;0.40;71.87;102730.69;5055114;28;20070;-25
2022/02/28 02:51:42;;;;;;;36.63;19.85;;;;;;;0.40;71.93;102735.88;5051438;28;20103;-25
2022/02/28 02:54:08;;;;;;;36.85;19.77;;;;;;;0.40;72.28;102728.09;5038234;28;20032;-24
2022/02/28 02:56:35;;;;;;;37.17;19.95;;;;;;;0.39;72.03;102732.38;5057481;28;20017;-25
2022/02/28 02:59:00;;;;;;;35.88;19.70;;;;;;;0.40;71.65;102728.97;5052529;28;20033;-24
2022/02/28 03:01:26;;;;;;;36.22;18.85;;;;;;;0.40;71.87;102717.69;5059075;28;20019;-25
2022/02/28 03:03:53;;;;;;;36.05;19.40;;;;;;;0.41;72.02;102722.09;5056021;28;20437;-25
2022/02/28 03:06:18;;;;;;;41.75;20.77;;;;;;;0.42;71.72;102726.47;5048915;28;20023;-26
2022/02/28 03:08:43;;;;;;;35.75;19.23;;;;;;;0.40;71.81;102722.91;5034929;28;20119;-25
2022/02/28 03:11:09;;;;;;;36.53;19.77;;;;;;;0.41;71.80;102729.88;5058186;28;20021;-23
2022/02/28 03:13:34;;;;;;;37.53;19.67;;;;;;;0.40;72.13;102728.09;5033721;28;20037;-23
2022/02/28 03:15:59;;;;;;;38.35;20.08;;;;;;;0.42;71.92;102726.47;5052303;28;20060;-24
2022/02/28 03:18:25;;;;;;;38.20;19.15;;;;;;;0.41;72.04;102729.88;5053494;28;20104;-24
2022/02/28 03:20:50;;;;;;;34.45;19.67;;;;;;;0.42;71.98;102731.66;5050143;28;20021;-24
2022/02/28 03:23:16;;;;;;;34.20;19.35;;;;;;;0.42;71.84;102724.78;5056037;28;20029;-25
2022/02/28 03:25:41;;;;;;;34.50;19.35;;;;;;;0.42;71.76;102729.06;5053845;28;20553;-25
2022/02/28 03:28:06;;;;;;;32.97;19.02;;;;;;;0.42;72.01;102723.88;5052673;28;20028;-25
2022/02/28 03:30:32;;;;;;;33.40;17.95;;;;;;;0.43;71.58;102723.09;5051805;28;20095;-25
2022/02/28 03:32:57;;;;;;;33.83;19.48;;;;;;;0.43;71.64;102725.69;5053020;28;20028;-25
2022/02/28 03:35:22;;;;;;;36.50;19.80;;;;;;;0.43;71.94;102726.56;5035417;28;20029;-25
2022/02/28 03:37:48;;;;;;;36.08;18.50;;;;;;;0.43;71.58;102718.78;5032065;28;20040;-25
2022/02/28 03:40:13;;;;;;;38.42;20.95;;;;;;;0.43;71.97;102712.72;5044709;28;20119;-25
2022/02/28 03:42:39;;;;;;;32.22;19.50;;;;;;;0.43;72.10;102708.41;5030479;28;20056;-25
2022/02/28 03:45:05;;;;;;;37.30;19.15;;;;;;;0.43;71.71;102723.09;5051137;28;20398;-25
2022/02/28 03:47:30;;;;;;;36.10;19.65;;;;;;;0.43;72.05;102717.91;5047727;28;20517;-25
2022/02/28 03:49:56;;;;;;;38.05;21.23;;;;;;;0.44;72.15;102717.09;5045160;28;20060;-25
2022/02/28 03:52:21;;;;;;;47.83;21.35;;;;;;;0.43;71.86;102717.91;5048603;28;20360;-25
2022/02/28 03:54:46;;;;;;;39.15;20.55;;;;;;;0.43;71.64;102723.97;5045920;28;20096;-23
2022/02/28 03:57:12;;;;;;;40.92;19.92;;;;;;;0.43;71.73;102715.31;5048094;28;20501;-25
2022/02/28 03:59:37;;;;;;;43.42;22.02;;;;;;;0.42;71.83;102722.19;5027864;28;20021;-24
2022/02/28 04:02:03;;;;;;;40.08;20.60;;;;;;;0.44;72.14;102719.69;5027793;28;20611;-24
2022/02/28 04:04:28;;;;;;;38.67;20.13;;;;;;;0.44;71.69;102715.41;5047683;28;20029;-25
2022/02/28 04:06:53;;;;;;;40.72;19.50;;;;;;;0.42;71.60;102709.22;5048796;28;20029;-25
2022/02/28 04:09:19;;;;;;;40.47;21.70;;;;;;;0.43;72.03;102712.72;5016187;28;20043;-24
2022/02/28 04:11:44;;;;;;;38.63;20.73;;;;;;;0.43;71.64;102710.13;5046778;28;20021;-23
2022/02/28 04:14:10;;;;;;;39.83;20.55;;;;;;;0.44;71.73;102714.50;5048240;28;20033;-24
2022/02/28 04:16:35;;;;;;;36.90;21.20;;;;;;;0.44;72.12;102717.09;5030248;28;20029;-24
2022/02/28 04:19:01;;;;;;;40.08;21.75;;;;;;;0.44;71.75;102710.22;5047005;28;20051;-25
2022/02/28 04:21:26;;;;;;;47.20;21.35;;;;;;;0.43;72.01;102707.53;5027591;28;20071;-24
2022/02/28 04:23:51;;;;;;;34.95;21.35;;;;;;;0.44;71.60;102711.91;5045497;28;20461;-25
2022/02/28 04:26:20;;;;;;;46.40;22.40;;;;;;;0.43;71.66;102710.13;5048021;28;20032;-25
2022/02/28 04:28:46;;;;;;;44.10;22.02;;;;;;;0.41;72.10;102712.63;5044737;28;20029;-25
2022/02/28 04:31:12;;;;;;;40.17;21.05;;;;;;;0.43;72.13;102715.31;5028951;28;20035;-25
2022/02/28 04:33:38;;;;;;;43.28;21.13;;;;;;;0.41;71.76;102712.63;5036986;28;20040;-25
2022/02/28 04:36:03;;;;;;;44.45;21.13;;;;;;;0.43;71.46;102712.72;5052784;28;20029;-25
2022/02/28 04:38:29;;;;;;;45.55;21.65;;;;;;;0.42;72.06;102710.91;5054672;28;20020;-24
2022/02/28 04:40:54;;;;;;;51.88;23.35;;;;;;;0.42;71.93;102717.00;5054694;28;20021;-24
2022/02/28 04:43:20;;;;;;;42.90;21.75;;;;;;;0.42;71.91;102716.09;5053459;28;20068;-25
2022/02/28 04:45:45;;;;;;;44.83;23.63;;;;;;;0.42;72.08;102710.91;5049745;28;20024;-25
2022/02/28 04:48:10;;;;;;;49.38;23.10;;;;;;;0.40;72.03;102710.78;5051226;28;20143;-24
2022/02/28 04:50:36;;;;;;;40.17;21.50;;;;;;;0.41;71.77;102709.09;5047316;28;20048;-22
2022/02/28 04:53:01;;;;;;;43.42;22.00;;;;;;;0.41;71.62;102704.81;5037486;28;20114;-25
2022/02/28 04:55:26;;;;;;;41.10;21.88;;;;;;;0.42;71.93;102695.31;5052144;28;20067;-25
2022/02/28 04:57:52;;;;;;;46.50;23.17;;;;;;;0.41;71.99;102698.72;5057262;28;20111;-22
2022/02/28 05:00:17;;;;;;;45.60;24.23;;;;;;;0.41;71.58;102698.72;5061582;28;20027;-25
2022/02/28 05:02:43;;;;;;;48.42;23.17;;;;;;;0.40;71.93;102697.81;5061350;28;20036;-25
2022/02/28 05:05:08;;;;;;;46.58;23.50;;;;;;;0.40;71.85;102705.59;5056727;28;20107;-25
2022/02/28 05:07:34;;;;;;;49.08;23.77;;;;;;;0.40;71.90;102702.13;5051801;28;20067;-24
2022/02/28 05:09:59;;;;;;;48.75;25.05;;;;;;;0.38;72.25;102702.94;5055176;28;20479;-25
2022/02/28 05:12:24;;;;;;;49.83;25.27;;;;;;;0.38;71.75;102700.34;5052221;28;20027;-25
2022/02/28 05:14:50;;;;;;;47.35;23.60;;;;;;;0.41;72.12;102706.50;5052671;28;20025;-24
2022/02/28 05:17:16;;;;;;;48.95;24.60;;;;;;;0.40;71.63;102702.13;5030655;28;21007;-24
2022/02/28 05:19:41;;;;;;;48.17;23.92;;;;;;;0.40;72.12;102707.31;5052410;28;20174;-24
2022/02/28 05:22:07;;;;;;;52.67;24.60;;;;;;;0.41;71.97;102706.50;5033436;28;20100;-25
2022/02/28 05:24:33;;;;;;;45.88;24.50;;;;;;;0.41;72.26;102714.28;5053220;28;20029;-24
2022/02/28 05:26:58;;;;;;;55.22;26.10;;;;;;;0.38;71.71;102710.72;5037668;28;20116;-24
2022/02/28 05:29:24;;;;;;;53.85;25.55;;;;;;;0.41;71.82;102716.91;5049636;28;20033;-24
2022/02/28 05:31:49;;;;;;;46.42;24.42;;;;;;;0.39;72.12;102711.59;5050014;28;20031;-25
2022/02/28 05:34:14;;;;;;;45.25;24.38;;;;;;;0.40;71.94;102715.09;5053933;28;20020;-23
2022/02/28 05:36:40;;;;;;;50.13;26.77;;;;;;;0.40;72.33;102713.38;5053203;28;20482;-25
2022/02/28 05:39:05;;;;;;;49.05;25.95;;;;;;;0.40;71.94;102715.09;5053679;28;20028;-25
2022/02/28 05:41:31;;;;;;;50.97;25.25;;;;;;;0.40;71.96;102723.78;5052300;28;20021;-23
2022/02/28 05:43:56;;;;;;;51.72;26.05;;;;;;;0.40;72.21;102728.09;5050521;28;20594;-25
2022/02/28 05:46:21;;;;;;;58.58;27.92;;;;;;;0.40;72.31;102725.50;5049997;28;20025;-22
2022/02/28 05:48:47;;;;;;;51.95;25.77;;;;;;;0.40;71.83;102728.09;5057423;28;20029;-25
2022/02/28 05:51:12;;;;;;;54.03;25.45;;;;;;;0.40;72.31;102730.69;5057780;28;20621;-25
2022/02/28 05:53:38;;;;;;;57.75;25.85;;;;;;;0.41;72.10;102733.38;5052549;28;20032;-25
2022/02/28 05:56:05;;;;;;;53.75;26.50;;;;;;;0.40;72.08;102726.38;5053316;28;20074;-25
2022/02/28 05:58:30;;;;;;;53.72;25.73;;;;;;;0.42;71.87;102734.25;5051622;28;20532;-25
2022/02/28 06:00:55;;;;;;;48.78;27.85;;;;;;;0.40;72.26;102728.97;5054215;28;20029;-24
2022/02/28 06:03:21;;;;;;;58.55;26.55;;;;;;;0.38;71.79;102728.91;5051294;28;20108;-24
2022/02/28 06:05:46;;;;;;;54.03;28.80;;;;;;;0.40;72.18;102728.97;5054726;28;20163;-25
2022/02/28 06:08:12;;;;;;;55.10;27.30;;;;;;;0.41;71.97;102724.69;5052490;28;20421;-24
2022/02/28 06:10:37;;;;;;;50.58;27.33;;;;;;;0.40;72.11;102728.09;5048514;28;20398;-25
2022/02/28 06:13:02;;;;;;;59.90;28.45;;;;;;;0.40;72.21;102733.28;5052760;28;20051;-24
2022/02/28 06:15:28;;;;;;;53.90;25.85;;;;;;;0.40;71.73;102733.28;5050761;28;20017;-25
2022/02/28 06:17:53;;;;;;;52.85;25.83;;;;;;;0.39;71.93;102737.56;5052747;28;20543;-22
2022/02/28 06:20:19;;;;;;;48.85;25.95;;;;;;;0.40;72.27;102735.88;5050531;28;20078;-25
2022/02/28 06:22:44;;;;;;;53.03;26.33;;;;;;;0.39;72.07;102742.75;5051169;28;20031;-25
2022/02/28 06:25:10;;;;;;;51.45;26.25;;;;;;;0.40;72.00;102741.94;5040291;28;20039;-24
2022/02/28 06:27:36;;;;;;;51.63;26.13;;;;;;;0.38;72.36;102734.09;5040347;28;20040;-25
2022/02/28 06:30:01;;;;;;;51.92;25.83;;;;;;;0.40;71.96;102738.47;5055509;28;20398;-24
2022/02/28 06:32:27;;;;;;;50.92;25.77;;;;;;;0.40;72.26;102735.88;5033865;28;20036;-24
2022/02/28 06:34:53;;;;;;;51.75;26.67;;;;;;;0.40;72.54;102741.06;5052927;28;20033;-24
2022/02/28 06:37:18;;;;;;;50.03;25.02;;;;;;;0.40;72.00;102736.75;5058306;28;20103;-25
2022/02/28 06:39:45;;;;;;;52.38;27.65;;;;;;;0.41;72.08;102745.47;5057292;28;20533;-25
2022/02/28 06:42:11;;;;;;;53.40;25.98;;;;;;;0.40;71.96;102744.53;5052392;28;20100;-24
2022/02/28 06:44:36;;;;;;;55.28;26.67;;;;;;;0.40;72.16;102743.66;5051249;28;20044;-25
2022/02/28 06:47:02;;;;;;;55.45;28.13;;;;;;;0.40;71.86;102746.25;5052036;28;20082;-25
2022/02/28 06:49:28;;;;;;;51.80;26.33;;;;;;;0.39;72.42;102747.94;5047784;28;20479;-25
2022/02/28 06:51:53;;;;;;;49.97;25.42;;;;;;;0.40;72.10;102749.72;5051875;28;20039;-25
2022/02/28 06:54:18;;;;;;;51.53;27.15;;;;;;;0.40;72.33;102751.47;5049189;28;20418;-25
2022/02/28 06:56:44;;;;;;;45.72;25.63;;;;;;;0.41;72.19;102761.94;5054758;28;20027;-25
2022/02/28 06:59:09;;;;;;;54.55;26.35;;;;;;;0.41;71.94;102766.22;5055497;28;20470;-23
2022/02/28 07:01:36;;;;;;;50.55;25.30;;;;;;;0.40;72.17;102759.25;5038821;28;20021;-25
2022/02/28 07:04:03;;;;;;;47.35;25.48;;;;;;;0.39;72.47;102763.53;5055563;28;20058;-24
2022/02/28 07:06:28;;;;;;;48.35;25.33;;;;;;;0.40;72.28;102764.44;5050764;28;20502;-25
2022/02/28 07:08:54;;;;;;;49.17;24.88;;;;;;;0.40;72.24;102761.84;5055988;28;20025;-25
2022/02/28 07:11:20;;;;;;;53.53;26.58;;;;;;;0.41;72.73;102771.41;5034173;28;20028;-23
2022/02/28 07:13:46;;;;;;;56.90;24.55;;;;;;;0.37;72.55;102766.00;5049357;28;20024;-23
2022/02/28 07:16:11;;;;;;;51.63;24.52;;;;;;;0.40;72.00;102762.72;5047889;28;20386;-25
2022/02/28 07:18:37;;;;;;;51.03;25.50;;;;;;;0.41;72.60;102761.03;5057730;28;20104;-25
2022/02/28 07:21:02;;;;;;;46.67;24.13;;;;;;;0.43;72.34;102764.66;5052808;28;20025;-24
2022/02/28 07:23:27;;;;;;;48.13;25.27;;;;;;;0.42;72.21;102763.72;5056353;28;20033;-25
2022/02/28 07:25:53;;;;;;;50.17;24.92;;;;;;;0.41;72.36;102761.94;5058061;28;20051;-24
2022/02/28 07:28:18;;;;;;;45.88;24.25;;;;;;;0.42;72.36;102773.22;5059572;28;20017;-24
2022/02/28 07:30:43;;;;;;;50.53;23.15;;;;;;;0.42;72.30;102775.81;5052442;28;20047;-25
2022/02/28 07:33:09;;;;;;;45.38;23.33;;;;;;;0.42;72.57;102784.50;5059893;28;20458;-25
2022/02/28 07:35:34;;;;;;;51.22;26.35;;;;;;;0.43;72.66;102775.03;5055374;28;20020;-25
2022/02/28 07:38:00;;;;;;;46.63;24.30;;;;;;;0.43;72.60;102785.41;5036059;28;20028;-25
2022/02/28 07:40:25;;;;;;;52.83;24.65;;;;;;;0.44;72.51;102787.22;5056086;28;20025;-24
2022/02/28 07:42:51;;;;;;;54.08;25.42;;;;;;;0.43;72.40;102791.50;5058134;28;20020;-25
2022/02/28 07:45:16;;;;;;;48.95;23.67;;;;;;;0.44;72.78;102795.00;5036497;28;20518;-25
2022/02/28 07:47:42;;;;;;;45.28;24.90;;;;;;;0.45;72.86;102792.50;5034586;28;20036;-24
2022/02/28 07:50:07;;;;;;;47.25;25.35;;;;;;;0.43;72.92;102801.88;5051035;28;20020;-25
2022/02/28 07:52:33;;;;;;;56.72;25.30;;;;;;;0.44;72.79;102797.59;5039336;28;20409;-25
2022/02/28 07:54:58;;;;;;;51.50;23.23;;;;;;;0.43;72.86;102804.47;5059486;28;20063;-25
2022/02/28 07:57:24;;;;;;;50.05;24.25;;;;;;;0.44;72.60;102810.56;5057487;28;20037;-25
2022/02/28 07:59:49;;;;;;;52.58;24.48;;;;;;;0.44;72.61;102813.16;5044761;28;20033;-25
2022/02/28 08:02:14;;;;;;;48.80;23.63;;;;;;;0.45;72.94;102817.56;5057988;28;20394;-25
2022/02/28 08:04:40;;;;;;;48.30;23.30;;;;;;;0.46;72.54;102816.75;5052366;28;20064;-25
2022/02/28 08:07:05;;;;;;;51.50;24.17;;;;;;;0.45;72.42;102814.97;5056704;28;20033;-24
2022/02/28 08:09:31;;;;;;;48.58;23.20;;;;;;;0.45;72.79;102814.97;5058042;28;20067;-25
2022/02/28 08:11:57;;;;;;;51.80;25.02;;;;;;;0.44;72.48;102811.50;5060980;28;20025;-25
2022/02/28 08:14:23;;;;;;;53.13;24.83;;;;;;;0.45;72.33;102813.28;5059927;28;20025;-24
2022/02/28 08:16:48;;;;;;;51.22;24.70;;;;;;;0.47;72.82;102813.38;5055640;28;20078;-24
2022/02/28 08:19:15;;;;;;;52.85;25.42;;;;;;;0.48;72.99;102825.56;5059153;28;20029;-25
2022/02/28 08:21:41;;;;;;;47.72;24.02;;;;;;;0.46;72.66;102816.75;5056174;28;20075;-25
2022/02/28 08:24:06;;;;;;;48.35;24.30;;;;;;;0.48;72.93;102820.38;5061040;28;20052;-25
2022/02/28 08:26:31;;;;;;;55.25;24.90;;;;;;;0.50;72.86;102826.59;5035986;28;20471;-25
2022/02/28 08:28:57;;;;;;;50.22;23.77;;;;;;;0.50;72.84;102823.97;5053146;28;20020;-25
2022/02/28 08:31:22;;;;;;;56.50;25.50;;;;;;;0.51;72.30;102830.97;5053847;28;20028;-25
2022/02/28 08:33:48;;;;;;;50.80;24.50;;;;;;;0.51;72.60;102818.88;5060855;28;20086;-25
2022/02/28 08:36:13;;;;;;;50.22;23.80;;;;;;;0.53;72.83;102823.28;5056919;28;20055;-25
2022/02/28 08:38:38;;;;;;;47.42;22.00;;;;;;;0.53;72.78;102824.16;5053679;28;20039;-23
2022/02/28 08:41:04;;;;;;;48.13;24.52;;;;;;;0.53;72.71;102821.56;5057338;28;20501;-22
2022/02/28 08:43:29;;;;;;;48.65;23.13;;;;;;;0.54;72.84;102823.38;5055848;28;20074;-22
2022/02/28 08:45:55;;;;;;;49.38;23.45;;;;;;;0.55;72.82;102819.06;5057488;28;20024;-21
2022/02/28 08:48:20;;;;;;;48.15;22.85;;;;;;;0.56;72.42;102829.56;5057936;28;20033;-24
2022/02/28 08:50:46;;;;;;;41.95;22.65;;;;;;;0.57;72.70;102827.88;5053787;28;20495;-20
2022/02/28 08:53:11;;;;;;;46.58;21.77;;;;;;;0.58;72.82;102829.69;5060118;28;20490;-22
2022/02/28 08:55:37;;;;;;;41.08;22.10;;;;;;;0.59;72.93;102839.25;5058950;28;20048;-23
2022/02/28 08:58:03;;;;;;;40.22;23.42;;;;;;;0.59;72.93;102834.97;5056150;28;20029;-23
2022/02/28 09:00:28;;;;;;;46.00;22.35;;;;;;;0.59;73.21;102832.38;5056988;28;20025;-21
2022/02/28 09:02:54;;;;;;;46.97;23.08;;;;;;;0.61;72.93;102832.47;5055482;28;20028;-23
2022/02/28 09:05:20;;;;;;;42.80;21.52;;;;;;;0.62;72.61;102832.59;5055473;28;20386;-22
2022/02/28 09:07:46;;;;;;;46.85;22.98;;;;;;;0.63;72.63;102836.97;5059214;28;20460;-22
2022/02/28 09:10:12;;;;;;;40.45;19.40;;;;;;;0.64;72.67;102841.38;5035710;28;20029;-22
2022/02/28 09:12:37;;;;;;;47.97;21.27;;;;;;;0.64;72.97;102843.97;5054810;28;20036;-24
2022/02/28 09:15:03;;;;;;;42.75;21.45;;;;;;;0.67;72.79;102837.19;5050398;28;20028;-21
2022/02/28 09:17:30;;;;;;;44.58;22.70;;;;;;;0.67;73.21;102834.59;5052114;28;20029;-21
2022/02/28 09:19:56;;;;;;;47.63;22.70;;;;;;;0.69;73.08;102840.78;5042557;28;20115;-23
2022/02/28 09:22:21;;;;;;;41.58;21.73;;;;;;;0.69;73.00;102840.78;5055285;28;20124;-20
2022/02/28 09:24:46;;;;;;;37.53;20.67;;;;;;;0.69;73.21;102835.56;5037914;28;20032;-23
2022/02/28 09:27:12;;;;;;;46.00;22.05;;;;;;;0.71;73.15;102834.00;5058267;28;20020;-21
2022/02/28 09:29:37;;;;;;;41.58;20.27;;;;;;;0.72;73.25;102830.59;5051912;28;20032;-22
2022/02/28 09:32:03;;;;;;;40.00;21.17;;;;;;;0.74;73.07;102829.00;5052291;28;20029;-22
2022/02/28 09:34:30;;;;;;;42.88;21.60;;;;;;;0.73;73.08;102829.81;5052944;28;20029;-22
2022/02/28 09:36:55;;;;;;;44.03;21.55;;;;;;;0.74;72.87;102824.69;5055592;28;20409;-23
2022/02/28 09:39:21;;;;;;;41.75;21.70;;;;;;;0.76;72.97;102835.19;5054704;28;20043;-22
2022/02/28 09:41:47;;;;;;;41.25;20.27;;;;;;;0.76;72.78;102832.59;5053163;28;20115;-21
2022/02/28 09:44:16;;;;;;;41.90;21.05;;;;;;;0.78;73.12;102838.81;5057390;28;20038;-22
2022/02/28 09:46:43;;;;;;;41.00;20.67;;;;;;;0.80;73.31;102844.09;5053596;28;20102;-21
2022/02/28 09:49:09;;;;;;;42.97;21.33;;;;;;;0.79;73.06;102848.38;5034319;28;20045;-22
2022/02/28 09:51:35;;;;;;;40.15;20.25;;;;;;;0.81;72.86;102849.41;5050631;28;20409;-22
2022/02/28 09:54:01;;;;;;;40.92;22.00;;;;;;;0.83;73.08;102842.59;5058043;28;20081;-20
2022/02/28 09:56:26;;;;;;;42.47;22.08;;;;;;;0.82;73.29;102842.50;5056505;28;20061;-22
2022/02/28 09:58:52;;;;;;;42.92;22.08;;;;;;;0.82;73.13;102833.00;5056448;28;20557;-22
2022/02/28 10:01:17;;;;;;;46.95;22.70;;;;;;;0.82;73.10;102817.41;5054723;28;20068;-23
2022/02/28 10:03:42;;;;;;;38.05;22.27;;;;;;;0.85;73.43;102829.72;5055129;28;20025;-24
2022/02/28 10:06:08;;;;;;;46.03;23.52;;;;;;;0.86;73.52;102834.09;5056157;28;20037;-20
2022/02/28 10:08:46;;;;;;;39.35;20.95;;;;;;;0.88;73.07;102838.63;5019504;28;20094;-22
2022/02/28 10:11:32;;;;;;;41.30;20.67;;;;;;;0.90;72.87;102841.28;5057159;28;20032;-21
2022/02/28 10:14:00;;;;;;;44.22;21.83;;;;;;;0.92;73.38;102849.19;5052657;28;20024;-20
2022/02/28 10:16:37;;;;;;;42.70;21.17;;;;;;;0.94;73.32;102853.72;5056480;28;20020;-21
2022/02/28 10:19:05;;;;;;;43.85;22.42;;;;;;;0.94;72.98;102848.53;5057063;28;20063;-21
2022/02/28 10:21:40;;;;;;;42.55;22.23;;;;;;;0.96;73.10;102852.09;5018490;28;20557;-22
2022/02/28 10:24:26;;;;;;;38.80;19.90;;;;;;;0.98;73.15;102836.63;5053037;28;20549;-21
2022/02/28 10:26:57;;;;;;;39.95;21.10;;;;;;;0.98;73.22;102842.72;5033740;28;20029;-20
2022/02/28 10:29:23;;;;;;;44.08;22.40;;;;;;;1.01;73.22;102834.22;5052284;28;20397;-21
2022/02/28 10:31:48;;;;;;;41.63;21.40;;;;;;;1.02;72.94;102831.72;5054754;28;20127;-23
2022/02/28 10:34:19;;;;;;;35.88;19.58;;;;;;;1.03;72.89;102837.81;5051085;28;20513;-21
2022/02/28 10:36:46;;;;;;;41.22;21.88;;;;;;;1.05;73.41;102838.81;5050297;28;20021;-20
2022/02/28 10:39:12;;;;;;;40.38;21.92;;;;;;;1.06;73.39;102832.81;5050672;28;20041;-21
2022/02/28 10:41:40;;;;;;;41.13;21.17;;;;;;;1.08;73.37;102833.81;5050754;28;20029;-23
2022/02/28 10:44:09;;;;;;;42.45;22.17;;;;;;;1.12;72.92;102837.50;5015670;28;20102;-21
2022/02/28 10:46:42;;;;;;;44.72;22.08;;;;;;;1.11;72.98;102836.63;5048409;28;20036;-21
2022/02/28 10:49:09;;;;;;;34.20;20.40;;;;;;;1.12;73.19;102824.50;5050223;28;20400;-21
2022/02/28 10:51:56;;;;;;;43.67;21.52;;;;;;;1.16;72.94;102829.09;5050195;28;20107;-24
2022/02/28 10:54:31;;;;;;;38.47;20.50;;;;;;;1.18;73.31;102826.59;5030476;28;20022;-20
2022/02/28 10:57:09;;;;;;;39.00;21.17;;;;;;;1.21;73.32;102829.41;5051674;28;20424;-21
2022/02/28 10:59:49;;;;;;;43.53;24.85;;;;;;;1.23;73.20;102830.44;5048195;28;20366;-20
2022/02/28 11:02:26;;;;;;;42.47;22.60;;;;;;;1.24;73.05;102827.00;5059038;28;20028;-21
2022/02/28 11:05:13;;;;;;;41.08;21.75;;;;;;;1.25;73.43;102818.41;5044244;28;20028;-21
2022/02/28 11:07:41;;;;;;;40.78;20.08;;;;;;;1.27;73.12;102817.69;5055748;28;20670;-21
2022/02/28 11:10:07;;;;;;;41.90;21.60;;;;;;;1.30;73.06;102821.31;5058957;28;20028;-20
2022/02/28 11:12:33;;;;;;;44.95;22.35;;;;;;;1.33;72.97;102817.19;5057840;28;20021;-21
2022/02/28 11:15:07;;;;;;;38.72;21.98;;;;;;;1.35;72.94;102810.41;5054602;28;20492;-20
2022/02/28 11:17:35;;;;;;;44.55;22.38;;;;;;;1.36;73.42;102813.88;5038549;28;20029;-20
2022/02/28 11:20:06;;;;;;;38.33;22.33;;;;;;;1.37;73.52;102811.38;5054378;28;20024;-21
2022/02/28 11:22:32;;;;;;;39.47;20.90;;;;;;;1.42;73.54;102809.06;5052662;28;20491;-21
2022/02/28 11:24:57;;;;;;;41.40;22.40;;;;;;;1.47;73.54;102804.19;5049710;28;20060;-22
2022/02/28 11:27:23;;;;;;;37.60;21.08;;;;;;;1.50;73.51;102799.16;5049647;28;20028;-20